sensor_id;sensor_type;location;lat;lon;timestamp;pressure;altitude;pressure_sealevel;temperature
68743;BMP180;55725;42.758;26.702;2023-02-17T00:00:29;100108.00;;;-1.20
68743;BMP180;55725;42.758;26.702;2023-02-17T00:02:09;100107.00;;;-0.90
68743;BMP180;55725;42.758;26.702;2023-02-17T00:03:50;100115.00;;;-1.20
68743;BMP180;55725;42.758;26.702;2023-02-17T00:05:30;100102.00;;;-1.40
68743;BMP180;55725;42.758;26.702;2023-02-17T00:07:10;100097.00;;;-1.80
68743;BMP180;55725;42.758;26.702;2023-02-17T00:08:51;100106.00;;;-1.40
68743;BMP180;55725;42.758;26.702;2023-02-17T00:10:31;100097.00;;;-1.70
68743;BMP180;55725;42.758;26.702;2023-02-17T00:12:11;100090.00;;;-1.90
68743;BMP180;55725;42.758;26.702;2023-02-17T00:13:52;100091.00;;;-2.50
68743;BMP180;55725;42.758;26.702;2023-02-17T00:15:32;100083.00;;;-1.50
68743;BMP180;55725;42.758;26.702;2023-02-17T00:17:12;100083.00;;;-2.20
68743;BMP180;55725;42.758;26.702;2023-02-17T00:18:54;100078.00;;;-1.80
68743;BMP180;55725;42.758;26.702;2023-02-17T00:20:34;100082.00;;;-1.70
68743;BMP180;55725;42.758;26.702;2023-02-17T00:22:14;100074.00;;;-1.80
68743;BMP180;55725;42.758;26.702;2023-02-17T00:23:55;100081.00;;;-1.40
68743;BMP180;55725;42.758;26.702;2023-02-17T00:25:36;100083.00;;;-1.20
68743;BMP180;55725;42.758;26.702;2023-02-17T00:27:17;100074.00;;;-1.60
68743;BMP180;55725;42.758;26.702;2023-02-17T00:28:58;100066.00;;;-1.60
68743;BMP180;55725;42.758;26.702;2023-02-17T00:30:38;100084.00;;;-1.90
68743;BMP180;55725;42.758;26.702;2023-02-17T00:32:19;100075.00;;;-1.80
68743;BMP180;55725;42.758;26.702;2023-02-17T00:33:59;100065.00;;;-2.10
68743;BMP180;55725;42.758;26.702;2023-02-17T00:35:39;100068.00;;;-1.60
68743;BMP180;55725;42.758;26.702;2023-02-17T00:37:20;100080.00;;;-1.80
68743;BMP180;55725;42.758;26.702;2023-02-17T00:39:01;100081.00;;;-1.70
68743;BMP180;55725;42.758;26.702;2023-02-17T00:40:41;100059.00;;;-1.70
68743;BMP180;55725;42.758;26.702;2023-02-17T00:42:22;100070.00;;;-2.30
68743;BMP180;55725;42.758;26.702;2023-02-17T00:44:02;100060.00;;;-2.10
68743;BMP180;55725;42.758;26.702;2023-02-17T00:45:43;100062.00;;;-2.20
68743;BMP180;55725;42.758;26.702;2023-02-17T00:47:23;100061.00;;;-2.00
68743;BMP180;55725;42.758;26.702;2023-02-17T00:49:03;100061.00;;;-2.10
68743;BMP180;55725;42.758;26.702;2023-02-17T00:50:44;100055.00;;;-1.50
68743;BMP180;55725;42.758;26.702;2023-02-17T00:52:24;100059.00;;;-2.30
68743;BMP180;55725;42.758;26.702;2023-02-17T00:54:05;100049.00;;;-1.80
68743;BMP180;55725;42.758;26.702;2023-02-17T00:55:45;100051.00;;;-2.20
68743;BMP180;55725;42.758;26.702;2023-02-17T00:57:25;100055.00;;;-2.60
68743;BMP180;55725;42.758;26.702;2023-02-17T00:59:06;100044.00;;;-2.10
68743;BMP180;55725;42.758;26.702;2023-02-17T01:00:47;100050.00;;;-2.00
68743;BMP180;55725;42.758;26.702;2023-02-17T01:02:27;100043.00;;;-1.80
68743;BMP180;55725;42.758;26.702;2023-02-17T01:04:07;100043.00;;;-2.40
68743;BMP180;55725;42.758;26.702;2023-02-17T01:05:48;100050.00;;;-2.20
68743;BMP180;55725;42.758;26.702;2023-02-17T01:07:28;100052.00;;;-2.30
68743;BMP180;55725;42.758;26.702;2023-02-17T01:09:11;100036.00;;;-1.80
68743;BMP180;55725;42.758;26.702;2023-02-17T01:10:52;100041.00;;;-2.20
68743;BMP180;55725;42.758;26.702;2023-02-17T01:12:32;100032.00;;;-1.60
68743;BMP180;55725;42.758;26.702;2023-02-17T01:14:12;100037.00;;;-2.10
68743;BMP180;55725;42.758;26.702;2023-02-17T01:15:53;100006.00;;;-2.00
68743;BMP180;55725;42.758;26.702;2023-02-17T01:17:33;100034.00;;;-2.40
68743;BMP180;55725;42.758;26.702;2023-02-17T01:19:15;100028.00;;;-2.80
68743;BMP180;55725;42.758;26.702;2023-02-17T01:20:56;100024.00;;;-2.30
68743;BMP180;55725;42.758;26.702;2023-02-17T01:22:37;100025.00;;;-2.60
68743;BMP180;55725;42.758;26.702;2023-02-17T01:24:17;100031.00;;;-2.70
68743;BMP180;55725;42.758;26.702;2023-02-17T01:25:57;100021.00;;;-2.30
68743;BMP180;55725;42.758;26.702;2023-02-17T01:27:38;100020.00;;;-2.20
68743;BMP180;55725;42.758;26.702;2023-02-17T01:29:18;100016.00;;;-1.90
68743;BMP180;55725;42.758;26.702;2023-02-17T01:31:03;100014.00;;;-2.60
68743;BMP180;55725;42.758;26.702;2023-02-17T01:32:44;100007.00;;;-2.80
68743;BMP180;55725;42.758;26.702;2023-02-17T01:34:24;100011.00;;;-3.10
68743;BMP180;55725;42.758;26.702;2023-02-17T01:36:05;100008.00;;;-2.90
68743;BMP180;55725;42.758;26.702;2023-02-17T01:37:46;99998.00;;;-2.70
68743;BMP180;55725;42.758;26.702;2023-02-17T01:39:26;100006.00;;;-2.60
68743;BMP180;55725;42.758;26.702;2023-02-17T01:41:07;100010.00;;;-2.60
68743;BMP180;55725;42.758;26.702;2023-02-17T01:42:47;99999.00;;;-2.40
68743;BMP180;55725;42.758;26.702;2023-02-17T01:44:30;100002.00;;;-3.10
68743;BMP180;55725;42.758;26.702;2023-02-17T01:46:10;99998.00;;;-2.90
68743;BMP180;55725;42.758;26.702;2023-02-17T01:48:10;100004.00;;;-2.90
68743;BMP180;55725;42.758;26.702;2023-02-17T01:49:51;99995.00;;;-2.10
68743;BMP180;55725;42.758;26.702;2023-02-17T01:51:32;99987.00;;;-2.30
68743;BMP180;55725;42.758;26.702;2023-02-17T01:53:14;100003.00;;;-2.60
68743;BMP180;55725;42.758;26.702;2023-02-17T01:54:57;100000.00;;;-2.20
68743;BMP180;55725;42.758;26.702;2023-02-17T01:56:40;99983.00;;;-2.80
68743;BMP180;55725;42.758;26.702;2023-02-17T01:58:20;99997.00;;;-2.90
68743;BMP180;55725;42.758;26.702;2023-02-17T02:00:03;99989.00;;;-2.70
68743;BMP180;55725;42.758;26.702;2023-02-17T02:01:44;99990.00;;;-3.20
68743;BMP180;55725;42.758;26.702;2023-02-17T02:03:24;99998.00;;;-3.30
68743;BMP180;55725;42.758;26.702;2023-02-17T02:05:05;99983.00;;;-2.90
68743;BMP180;55725;42.758;26.702;2023-02-17T02:06:45;99980.00;;;-2.50
68743;BMP180;55725;42.758;26.702;2023-02-17T02:08:27;99982.00;;;-2.60
68743;BMP180;55725;42.758;26.702;2023-02-17T02:10:10;99991.00;;;-2.50
68743;BMP180;55725;42.758;26.702;2023-02-17T02:11:51;99985.00;;;-3.20
68743;BMP180;55725;42.758;26.702;2023-02-17T02:13:31;99977.00;;;-2.90
68743;BMP180;55725;42.758;26.702;2023-02-17T02:15:16;99982.00;;;-3.10
68743;BMP180;55725;42.758;26.702;2023-02-17T02:18:49;99977.00;;;-2.80
68743;BMP180;55725;42.758;26.702;2023-02-17T02:28:05;99974.00;;;-2.30
68743;BMP180;55725;42.758;26.702;2023-02-17T02:31:47;99968.00;;;-2.60
68743;BMP180;55725;42.758;26.702;2023-02-17T02:33:43;99972.00;;;-3.20
68743;BMP180;55725;42.758;26.702;2023-02-17T02:35:38;99975.00;;;-2.90
68743;BMP180;55725;42.758;26.702;2023-02-17T02:37:25;99968.00;;;-3.10
68743;BMP180;55725;42.758;26.702;2023-02-17T02:39:10;99975.00;;;-3.00
68743;BMP180;55725;42.758;26.702;2023-02-17T02:40:52;99978.00;;;-2.70
68743;BMP180;55725;42.758;26.702;2023-02-17T02:42:33;99977.00;;;-2.10
68743;BMP180;55725;42.758;26.702;2023-02-17T02:44:15;99974.00;;;-2.60
68743;BMP180;55725;42.758;26.702;2023-02-17T02:45:56;99977.00;;;-2.90
68743;BMP180;55725;42.758;26.702;2023-02-17T02:47:47;99973.00;;;-2.80
68743;BMP180;55725;42.758;26.702;2023-02-17T02:49:28;99973.00;;;-2.80
68743;BMP180;55725;42.758;26.702;2023-02-17T02:52:58;99984.00;;;-2.30
68743;BMP180;55725;42.758;26.702;2023-02-17T02:54:55;99983.00;;;-2.90
68743;BMP180;55725;42.758;26.702;2023-02-17T02:56:51;99979.00;;;-2.40
68743;BMP180;55725;42.758;26.702;2023-02-17T03:00:18;99980.00;;;-2.50
68743;BMP180;55725;42.758;26.702;2023-02-17T03:02:21;99981.00;;;-3.00
68743;BMP180;55725;42.758;26.702;2023-02-17T03:04:11;99968.00;;;-2.50
68743;BMP180;55725;42.758;26.702;2023-02-17T03:07:34;99971.00;;;-2.70
68743;BMP180;55725;42.758;26.702;2023-02-17T03:09:24;99981.00;;;-3.00
68743;BMP180;55725;42.758;26.702;2023-02-17T03:11:05;99978.00;;;-2.20
68743;BMP180;55725;42.758;26.702;2023-02-17T03:12:45;99975.00;;;-2.60
68743;BMP180;55725;42.758;26.702;2023-02-17T03:14:26;99976.00;;;-2.90
68743;BMP180;55725;42.758;26.702;2023-02-17T03:16:07;99979.00;;;-2.70
68743;BMP180;55725;42.758;26.702;2023-02-17T03:17:48;99976.00;;;-2.10
68743;BMP180;55725;42.758;26.702;2023-02-17T03:19:28;99973.00;;;-3.30
68743;BMP180;55725;42.758;26.702;2023-02-17T03:21:11;99981.00;;;-2.80
68743;BMP180;55725;42.758;26.702;2023-02-17T03:22:52;99987.00;;;-2.90
68743;BMP180;55725;42.758;26.702;2023-02-17T03:24:33;99991.00;;;-3.30
68743;BMP180;55725;42.758;26.702;2023-02-17T03:26:14;99979.00;;;-3.30
68743;BMP180;55725;42.758;26.702;2023-02-17T03:27:54;99990.00;;;-3.70
68743;BMP180;55725;42.758;26.702;2023-02-17T03:29:34;99985.00;;;-3.50
68743;BMP180;55725;42.758;26.702;2023-02-17T03:31:15;99982.00;;;-3.30
68743;BMP180;55725;42.758;26.702;2023-02-17T03:32:55;99986.00;;;-3.20
68743;BMP180;55725;42.758;26.702;2023-02-17T03:34:35;99995.00;;;-3.20
68743;BMP180;55725;42.758;26.702;2023-02-17T03:36:16;99993.00;;;-3.80
68743;BMP180;55725;42.758;26.702;2023-02-17T03:37:56;99993.00;;;-3.60
68743;BMP180;55725;42.758;26.702;2023-02-17T03:39:36;99989.00;;;-3.60
68743;BMP180;55725;42.758;26.702;2023-02-17T03:41:17;99982.00;;;-3.40
68743;BMP180;55725;42.758;26.702;2023-02-17T03:42:57;99996.00;;;-3.50
68743;BMP180;55725;42.758;26.702;2023-02-17T03:44:37;100003.00;;;-3.20
68743;BMP180;55725;42.758;26.702;2023-02-17T03:46:18;100001.00;;;-3.60
68743;BMP180;55725;42.758;26.702;2023-02-17T03:47:58;99994.00;;;-3.40
68743;BMP180;55725;42.758;26.702;2023-02-17T03:49:38;99989.00;;;-3.30
68743;BMP180;55725;42.758;26.702;2023-02-17T03:51:20;99985.00;;;-3.60
68743;BMP180;55725;42.758;26.702;2023-02-17T03:53:00;100002.00;;;-3.30
68743;BMP180;55725;42.758;26.702;2023-02-17T03:54:40;99991.00;;;-3.60
68743;BMP180;55725;42.758;26.702;2023-02-17T03:56:21;99989.00;;;-3.20
68743;BMP180;55725;42.758;26.702;2023-02-17T03:58:01;99986.00;;;-3.20
68743;BMP180;55725;42.758;26.702;2023-02-17T03:59:41;99986.00;;;-3.30
68743;BMP180;55725;42.758;26.702;2023-02-17T04:01:22;99987.00;;;-3.30
68743;BMP180;55725;42.758;26.702;2023-02-17T04:03:02;99989.00;;;-3.30
68743;BMP180;55725;42.758;26.702;2023-02-17T04:04:42;99993.00;;;-2.70
68743;BMP180;55725;42.758;26.702;2023-02-17T04:06:23;99991.00;;;-2.90
68743;BMP180;55725;42.758;26.702;2023-02-17T04:08:03;99989.00;;;-3.50
68743;BMP180;55725;42.758;26.702;2023-02-17T04:09:43;99988.00;;;-3.60
68743;BMP180;55725;42.758;26.702;2023-02-17T04:11:23;99983.00;;;-3.80
68743;BMP180;55725;42.758;26.702;2023-02-17T04:13:04;99983.00;;;-3.70
68743;BMP180;55725;42.758;26.702;2023-02-17T04:14:44;99978.00;;;-3.50
68743;BMP180;55725;42.758;26.702;2023-02-17T04:16:24;99988.00;;;-3.60
68743;BMP180;55725;42.758;26.702;2023-02-17T04:18:05;99988.00;;;-3.40
68743;BMP180;55725;42.758;26.702;2023-02-17T04:19:45;99980.00;;;-3.30
68743;BMP180;55725;42.758;26.702;2023-02-17T04:21:25;99975.00;;;-3.20
68743;BMP180;55725;42.758;26.702;2023-02-17T04:23:06;99981.00;;;-3.50
68743;BMP180;55725;42.758;26.702;2023-02-17T04:24:46;99981.00;;;-3.60
68743;BMP180;55725;42.758;26.702;2023-02-17T04:26:27;99977.00;;;-3.70
68743;BMP180;55725;42.758;26.702;2023-02-17T04:28:07;99983.00;;;-3.30
68743;BMP180;55725;42.758;26.702;2023-02-17T04:29:48;99978.00;;;-3.70
68743;BMP180;55725;42.758;26.702;2023-02-17T04:31:28;99982.00;;;-3.60
68743;BMP180;55725;42.758;26.702;2023-02-17T04:33:08;99972.00;;;-3.30
68743;BMP180;55725;42.758;26.702;2023-02-17T04:34:49;99982.00;;;-3.90
68743;BMP180;55725;42.758;26.702;2023-02-17T04:36:29;99975.00;;;-3.60
68743;BMP180;55725;42.758;26.702;2023-02-17T04:38:09;99980.00;;;-3.70
68743;BMP180;55725;42.758;26.702;2023-02-17T04:39:50;99979.00;;;-3.80
68743;BMP180;55725;42.758;26.702;2023-02-17T04:41:30;99985.00;;;-3.90
68743;BMP180;55725;42.758;26.702;2023-02-17T04:43:10;99983.00;;;-3.80
68743;BMP180;55725;42.758;26.702;2023-02-17T04:44:51;99985.00;;;-3.80
68743;BMP180;55725;42.758;26.702;2023-02-17T04:46:31;99979.00;;;-3.20
68743;BMP180;55725;42.758;26.702;2023-02-17T04:48:11;99985.00;;;-3.90
68743;BMP180;55725;42.758;26.702;2023-02-17T04:49:51;99990.00;;;-3.70
68743;BMP180;55725;42.758;26.702;2023-02-17T04:51:32;99990.00;;;-3.90
68743;BMP180;55725;42.758;26.702;2023-02-17T04:53:12;99983.00;;;-3.90
68743;BMP180;55725;42.758;26.702;2023-02-17T04:54:53;99992.00;;;-3.60
68743;BMP180;55725;42.758;26.702;2023-02-17T04:56:33;99987.00;;;-3.60
68743;BMP180;55725;42.758;26.702;2023-02-17T04:58:13;99996.00;;;-3.60
68743;BMP180;55725;42.758;26.702;2023-02-17T04:59:54;100002.00;;;-3.30
68743;BMP180;55725;42.758;26.702;2023-02-17T05:01:34;100007.00;;;-3.00
68743;BMP180;55725;42.758;26.702;2023-02-17T05:03:15;100007.00;;;-3.70
68743;BMP180;55725;42.758;26.702;2023-02-17T05:04:55;100005.00;;;-3.10
68743;BMP180;55725;42.758;26.702;2023-02-17T05:06:35;100003.00;;;-3.50
68743;BMP180;55725;42.758;26.702;2023-02-17T05:08:16;99998.00;;;-3.60
68743;BMP180;55725;42.758;26.702;2023-02-17T05:09:56;100004.00;;;-2.80
68743;BMP180;55725;42.758;26.702;2023-02-17T05:11:36;100002.00;;;-3.70
68743;BMP180;55725;42.758;26.702;2023-02-17T05:13:17;99994.00;;;-3.80
68743;BMP180;55725;42.758;26.702;2023-02-17T05:14:57;100013.00;;;-3.50
68743;BMP180;55725;42.758;26.702;2023-02-17T05:16:37;100007.00;;;-2.90
68743;BMP180;55725;42.758;26.702;2023-02-17T05:18:18;100002.00;;;-3.30
68743;BMP180;55725;42.758;26.702;2023-02-17T05:19:58;100004.00;;;-3.40
68743;BMP180;55725;42.758;26.702;2023-02-17T05:21:39;100007.00;;;-3.10
68743;BMP180;55725;42.758;26.702;2023-02-17T05:23:19;99997.00;;;-3.20
68743;BMP180;55725;42.758;26.702;2023-02-17T05:24:59;100011.00;;;-2.90
68743;BMP180;55725;42.758;26.702;2023-02-17T05:26:40;100000.00;;;-3.00
68743;BMP180;55725;42.758;26.702;2023-02-17T05:28:20;99998.00;;;-3.40
68743;BMP180;55725;42.758;26.702;2023-02-17T05:30:00;100007.00;;;-3.20
68743;BMP180;55725;42.758;26.702;2023-02-17T05:31:41;99993.00;;;-3.10
68743;BMP180;55725;42.758;26.702;2023-02-17T05:33:21;99998.00;;;-2.90
68743;BMP180;55725;42.758;26.702;2023-02-17T05:35:01;99999.00;;;-3.00
68743;BMP180;55725;42.758;26.702;2023-02-17T05:36:41;100004.00;;;-2.50
68743;BMP180;55725;42.758;26.702;2023-02-17T05:38:22;100012.00;;;-2.90
68743;BMP180;55725;42.758;26.702;2023-02-17T05:40:02;100008.00;;;-2.70
68743;BMP180;55725;42.758;26.702;2023-02-17T05:41:43;100004.00;;;-2.80
68743;BMP180;55725;42.758;26.702;2023-02-17T05:43:23;99998.00;;;-2.80
68743;BMP180;55725;42.758;26.702;2023-02-17T05:45:04;99991.00;;;-2.30
68743;BMP180;55725;42.758;26.702;2023-02-17T05:46:44;99997.00;;;-2.50
68743;BMP180;55725;42.758;26.702;2023-02-17T05:48:24;99991.00;;;-2.70
68743;BMP180;55725;42.758;26.702;2023-02-17T05:50:05;99998.00;;;-2.00
68743;BMP180;55725;42.758;26.702;2023-02-17T05:51:45;99995.00;;;-2.00
68743;BMP180;55725;42.758;26.702;2023-02-17T05:53:26;100001.00;;;-2.10
68743;BMP180;55725;42.758;26.702;2023-02-17T05:55:06;99984.00;;;-2.30
68743;BMP180;55725;42.758;26.702;2023-02-17T05:56:47;99991.00;;;-1.80
68743;BMP180;55725;42.758;26.702;2023-02-17T05:58:27;99991.00;;;-1.40
68743;BMP180;55725;42.758;26.702;2023-02-17T06:00:07;99979.00;;;-1.80
68743;BMP180;55725;42.758;26.702;2023-02-17T06:01:48;99994.00;;;-1.70
68743;BMP180;55725;42.758;26.702;2023-02-17T06:03:28;99984.00;;;-1.40
68743;BMP180;55725;42.758;26.702;2023-02-17T06:05:09;99981.00;;;-1.10
68743;BMP180;55725;42.758;26.702;2023-02-17T06:06:49;99996.00;;;-0.90
68743;BMP180;55725;42.758;26.702;2023-02-17T06:08:29;99985.00;;;-0.70
68743;BMP180;55725;42.758;26.702;2023-02-17T06:10:10;99984.00;;;-0.60
68743;BMP180;55725;42.758;26.702;2023-02-17T06:11:50;99980.00;;;-0.50
68743;BMP180;55725;42.758;26.702;2023-02-17T06:13:31;99991.00;;;-0.50
68743;BMP180;55725;42.758;26.702;2023-02-17T06:15:11;99978.00;;;-0.30
68743;BMP180;55725;42.758;26.702;2023-02-17T06:16:51;99986.00;;;-0.20
68743;BMP180;55725;42.758;26.702;2023-02-17T06:18:32;99982.00;;;-0.10
68743;BMP180;55725;42.758;26.702;2023-02-17T06:20:13;99975.00;;;-0.10
68743;BMP180;55725;42.758;26.702;2023-02-17T06:21:53;99987.00;;;-0.60
68743;BMP180;55725;42.758;26.702;2023-02-17T06:23:36;99967.00;;;-0.10
68743;BMP180;55725;42.758;26.702;2023-02-17T06:25:16;99969.00;;;-0.40
68743;BMP180;55725;42.758;26.702;2023-02-17T06:26:56;99972.00;;;-0.40
68743;BMP180;55725;42.758;26.702;2023-02-17T06:28:36;99970.00;;;-0.30
68743;BMP180;55725;42.758;26.702;2023-02-17T06:30:17;99962.00;;;0.30
68743;BMP180;55725;42.758;26.702;2023-02-17T06:31:57;99968.00;;;0.60
68743;BMP180;55725;42.758;26.702;2023-02-17T06:33:37;99965.00;;;0.00
68743;BMP180;55725;42.758;26.702;2023-02-17T06:35:18;99956.00;;;0.00
68743;BMP180;55725;42.758;26.702;2023-02-17T06:36:58;99946.00;;;0.60
68743;BMP180;55725;42.758;26.702;2023-02-17T06:38:38;99948.00;;;0.20
68743;BMP180;55725;42.758;26.702;2023-02-17T06:40:19;99950.00;;;1.00
68743;BMP180;55725;42.758;26.702;2023-02-17T06:41:59;99964.00;;;0.60
68743;BMP180;55725;42.758;26.702;2023-02-17T06:43:40;99959.00;;;0.80
68743;BMP180;55725;42.758;26.702;2023-02-17T06:45:20;99960.00;;;0.40
68743;BMP180;55725;42.758;26.702;2023-02-17T06:47:00;99947.00;;;1.00
68743;BMP180;55725;42.758;26.702;2023-02-17T06:48:41;99940.00;;;1.00
68743;BMP180;55725;42.758;26.702;2023-02-17T06:50:21;99920.00;;;1.50
68743;BMP180;55725;42.758;26.702;2023-02-17T06:52:01;99930.00;;;1.50
68743;BMP180;55725;42.758;26.702;2023-02-17T06:53:42;99913.00;;;1.80
68743;BMP180;55725;42.758;26.702;2023-02-17T06:55:22;99922.00;;;1.50
68743;BMP180;55725;42.758;26.702;2023-02-17T06:57:02;99921.00;;;2.30
68743;BMP180;55725;42.758;26.702;2023-02-17T06:58:42;99925.00;;;2.40
68743;BMP180;55725;42.758;26.702;2023-02-17T07:00:23;99931.00;;;2.10
68743;BMP180;55725;42.758;26.702;2023-02-17T07:02:03;99916.00;;;2.60
68743;BMP180;55725;42.758;26.702;2023-02-17T07:03:44;99923.00;;;2.60
68743;BMP180;55725;42.758;26.702;2023-02-17T07:05:24;99925.00;;;2.40
68743;BMP180;55725;42.758;26.702;2023-02-17T07:07:07;99920.00;;;2.80
68743;BMP180;55725;42.758;26.702;2023-02-17T07:08:47;99922.00;;;2.70
68743;BMP180;55725;42.758;26.702;2023-02-17T07:10:27;99918.00;;;3.00
68743;BMP180;55725;42.758;26.702;2023-02-17T07:12:07;99929.00;;;3.40
68743;BMP180;55725;42.758;26.702;2023-02-17T07:13:48;99931.00;;;3.50
68743;BMP180;55725;42.758;26.702;2023-02-17T07:15:28;99934.00;;;3.50
68743;BMP180;55725;42.758;26.702;2023-02-17T07:17:08;99955.00;;;3.40
68743;BMP180;55725;42.758;26.702;2023-02-17T07:18:49;99937.00;;;3.30
68743;BMP180;55725;42.758;26.702;2023-02-17T07:20:29;99916.00;;;3.70
68743;BMP180;55725;42.758;26.702;2023-02-17T07:22:11;99937.00;;;3.70
68743;BMP180;55725;42.758;26.702;2023-02-17T07:23:51;99924.00;;;4.00
68743;BMP180;55725;42.758;26.702;2023-02-17T07:25:31;99917.00;;;4.00
68743;BMP180;55725;42.758;26.702;2023-02-17T07:27:12;99921.00;;;4.30
68743;BMP180;55725;42.758;26.702;2023-02-17T07:28:52;99937.00;;;4.40
68743;BMP180;55725;42.758;26.702;2023-02-17T07:30:36;99931.00;;;4.30
68743;BMP180;55725;42.758;26.702;2023-02-17T07:32:16;99937.00;;;4.20
68743;BMP180;55725;42.758;26.702;2023-02-17T07:33:57;99918.00;;;4.10
68743;BMP180;55725;42.758;26.702;2023-02-17T07:35:40;99937.00;;;4.70
68743;BMP180;55725;42.758;26.702;2023-02-17T07:37:22;99935.00;;;4.30
68743;BMP180;55725;42.758;26.702;2023-02-17T07:39:03;99942.00;;;4.80
68743;BMP180;55725;42.758;26.702;2023-02-17T07:40:43;99938.00;;;4.70
68743;BMP180;55725;42.758;26.702;2023-02-17T07:42:25;99940.00;;;5.20
68743;BMP180;55725;42.758;26.702;2023-02-17T07:44:06;99947.00;;;5.10
68743;BMP180;55725;42.758;26.702;2023-02-17T07:45:46;99938.00;;;5.10
68743;BMP180;55725;42.758;26.702;2023-02-17T07:47:26;99933.00;;;5.10
68743;BMP180;55725;42.758;26.702;2023-02-17T07:49:07;99929.00;;;5.60
68743;BMP180;55725;42.758;26.702;2023-02-17T07:50:47;99928.00;;;5.80
68743;BMP180;55725;42.758;26.702;2023-02-17T07:52:27;99934.00;;;5.40
68743;BMP180;55725;42.758;26.702;2023-02-17T07:54:08;99922.00;;;5.70
68743;BMP180;55725;42.758;26.702;2023-02-17T07:55:48;99927.00;;;5.80
68743;BMP180;55725;42.758;26.702;2023-02-17T07:57:28;99928.00;;;6.00
68743;BMP180;55725;42.758;26.702;2023-02-17T07:59:09;99921.00;;;6.40
68743;BMP180;55725;42.758;26.702;2023-02-17T08:00:50;99929.00;;;6.60
68743;BMP180;55725;42.758;26.702;2023-02-17T08:02:30;99935.00;;;6.70
68743;BMP180;55725;42.758;26.702;2023-02-17T08:04:10;99902.00;;;7.00
68743;BMP180;55725;42.758;26.702;2023-02-17T08:05:50;99922.00;;;6.90
68743;BMP180;55725;42.758;26.702;2023-02-17T08:07:32;99915.00;;;7.00
68743;BMP180;55725;42.758;26.702;2023-02-17T08:09:12;99922.00;;;7.60
68743;BMP180;55725;42.758;26.702;2023-02-17T08:11:11;99911.00;;;7.70
68743;BMP180;55725;42.758;26.702;2023-02-17T08:13:11;99931.00;;;7.70
68743;BMP180;55725;42.758;26.702;2023-02-17T08:15:00;99920.00;;;8.10
68743;BMP180;55725;42.758;26.702;2023-02-17T08:16:41;99909.00;;;7.90
68743;BMP180;55725;42.758;26.702;2023-02-17T08:18:21;99897.00;;;7.90
68743;BMP180;55725;42.758;26.702;2023-02-17T08:20:02;99909.00;;;8.10
68743;BMP180;55725;42.758;26.702;2023-02-17T08:21:42;99915.00;;;8.20
68743;BMP180;55725;42.758;26.702;2023-02-17T08:23:23;99919.00;;;7.90
68743;BMP180;55725;42.758;26.702;2023-02-17T08:25:03;99916.00;;;8.50
68743;BMP180;55725;42.758;26.702;2023-02-17T08:26:45;99905.00;;;8.80
68743;BMP180;55725;42.758;26.702;2023-02-17T08:28:26;99904.00;;;8.90
68743;BMP180;55725;42.758;26.702;2023-02-17T08:30:06;99908.00;;;8.70
68743;BMP180;55725;42.758;26.702;2023-02-17T08:31:50;99903.00;;;9.40
68743;BMP180;55725;42.758;26.702;2023-02-17T08:33:30;99898.00;;;9.50
68743;BMP180;55725;42.758;26.702;2023-02-17T08:35:11;99909.00;;;9.20
68743;BMP180;55725;42.758;26.702;2023-02-17T08:36:51;99894.00;;;9.20
68743;BMP180;55725;42.758;26.702;2023-02-17T08:38:32;99898.00;;;9.40
68743;BMP180;55725;42.758;26.702;2023-02-17T08:40:12;99887.00;;;9.50
68743;BMP180;55725;42.758;26.702;2023-02-17T08:41:53;99875.00;;;10.00
68743;BMP180;55725;42.758;26.702;2023-02-17T08:43:33;99894.00;;;10.20
68743;BMP180;55725;42.758;26.702;2023-02-17T08:45:14;99869.00;;;9.80
68743;BMP180;55725;42.758;26.702;2023-02-17T08:46:55;99861.00;;;10.10
68743;BMP180;55725;42.758;26.702;2023-02-17T08:48:35;99864.00;;;10.30
68743;BMP180;55725;42.758;26.702;2023-02-17T08:50:16;99875.00;;;10.30
68743;BMP180;55725;42.758;26.702;2023-02-17T08:51:56;99898.00;;;10.40
68743;BMP180;55725;42.758;26.702;2023-02-17T08:53:37;99899.00;;;10.20
68743;BMP180;55725;42.758;26.702;2023-02-17T08:55:17;99926.00;;;10.30
68743;BMP180;55725;42.758;26.702;2023-02-17T08:56:59;99944.00;;;10.50
68743;BMP180;55725;42.758;26.702;2023-02-17T08:58:39;99943.00;;;10.00
68743;BMP180;55725;42.758;26.702;2023-02-17T09:00:19;99952.00;;;10.10
68743;BMP180;55725;42.758;26.702;2023-02-17T09:02:00;99937.00;;;9.90
68743;BMP180;55725;42.758;26.702;2023-02-17T09:03:40;99935.00;;;10.00
68743;BMP180;55725;42.758;26.702;2023-02-17T09:05:20;99941.00;;;9.80
68743;BMP180;55725;42.758;26.702;2023-02-17T09:07:01;99941.00;;;10.00
68743;BMP180;55725;42.758;26.702;2023-02-17T09:08:41;99930.00;;;10.70
68743;BMP180;55725;42.758;26.702;2023-02-17T09:10:22;99930.00;;;10.20
68743;BMP180;55725;42.758;26.702;2023-02-17T09:12:02;99939.00;;;10.10
68743;BMP180;55725;42.758;26.702;2023-02-17T09:13:43;99940.00;;;9.90
68743;BMP180;55725;42.758;26.702;2023-02-17T09:15:23;99949.00;;;9.70
68743;BMP180;55725;42.758;26.702;2023-02-17T09:17:04;99950.00;;;9.50
68743;BMP180;55725;42.758;26.702;2023-02-17T09:18:44;99952.00;;;9.50
68743;BMP180;55725;42.758;26.702;2023-02-17T09:20:24;99957.00;;;9.50
68743;BMP180;55725;42.758;26.702;2023-02-17T09:22:05;99950.00;;;9.60
68743;BMP180;55725;42.758;26.702;2023-02-17T09:23:46;99951.00;;;9.60
68743;BMP180;55725;42.758;26.702;2023-02-17T09:25:26;99945.00;;;9.70
68743;BMP180;55725;42.758;26.702;2023-02-17T09:27:06;99948.00;;;9.60
68743;BMP180;55725;42.758;26.702;2023-02-17T09:28:47;99937.00;;;9.60
68743;BMP180;55725;42.758;26.702;2023-02-17T09:30:28;99945.00;;;9.70
68743;BMP180;55725;42.758;26.702;2023-02-17T09:32:09;99946.00;;;9.80
68743;BMP180;55725;42.758;26.702;2023-02-17T09:33:49;99945.00;;;9.70
68743;BMP180;55725;42.758;26.702;2023-02-17T09:35:30;99948.00;;;9.90
68743;BMP180;55725;42.758;26.702;2023-02-17T09:37:11;99935.00;;;9.90
68743;BMP180;55725;42.758;26.702;2023-02-17T09:38:51;99935.00;;;10.20
68743;BMP180;55725;42.758;26.702;2023-02-17T09:40:41;99947.00;;;10.40
68743;BMP180;55725;42.758;26.702;2023-02-17T09:42:23;99935.00;;;10.00
68743;BMP180;55725;42.758;26.702;2023-02-17T09:44:05;99937.00;;;10.40
68743;BMP180;55725;42.758;26.702;2023-02-17T09:45:47;99933.00;;;10.40
68743;BMP180;55725;42.758;26.702;2023-02-17T09:47:33;99929.00;;;10.30
68743;BMP180;55725;42.758;26.702;2023-02-17T09:49:17;99937.00;;;10.50
68743;BMP180;55725;42.758;26.702;2023-02-17T09:55:14;99922.00;;;10.90